Time;durP1;ratioP1;P1;durP2;ratioP2;P2;SDS_P1;SDS_P2;PMS_P1;PMS_P2;Temp;Humidity;BMP_temperature;BMP_pressure;BME280_temperature;BME280_humidity;BME280_pressure;Samples;Min_cycle;Max_cycle;Signal;HPM_P1;HPM_P2
2024/01/16 00:02:02;;;;;;;123.70;64.20;;;1.80;96.90;;;;;;5043751;28;20431;-84
2024/01/16 00:04:32;;;;;;;121.32;60.78;;;1.80;96.90;;;;;;5029320;28;20826;-84
2024/01/16 00:07:00;;;;;;;109.13;61.45;;;2.00;96.90;;;;;;5042469;28;20042;-83
2024/01/16 00:09:27;;;;;;;115.43;61.50;;;2.00;96.70;;;;;;5048196;28;20037;-83
2024/01/16 00:11:54;;;;;;;123.65;64.82;;;2.10;96.60;;;;;;5042693;28;20049;-78
2024/01/16 00:14:22;;;;;;;113.70;60.60;;;2.10;96.40;;;;;;5046990;28;20048;-84
2024/01/16 00:16:49;;;;;;;111.68;60.47;;;2.00;96.50;;;;;;5026993;28;20053;-82
2024/01/16 00:19:16;;;;;;;131.73;67.85;;;1.80;96.30;;;;;;5019846;28;20045;-83
2024/01/16 00:21:47;;;;;;;125.90;67.50;;;1.90;96.60;;;;;;5030457;28;20041;-86
2024/01/16 00:24:15;;;;;;;132.95;68.85;;;1.80;96.60;;;;;;5048620;28;20056;-87
2024/01/16 00:26:42;;;;;;;126.20;66.22;;;2.00;96.70;;;;;;5028962;28;20029;-80
2024/01/16 00:29:12;;;;;;;132.82;67.70;;;2.10;96.80;;;;;;5050374;28;20086;-83
2024/01/16 00:31:40;;;;;;;131.55;69.68;;;2.20;97.20;;;;;;5048244;28;20484;-79
2024/01/16 00:34:07;;;;;;;128.10;67.05;;;2.20;97.10;;;;;;5045614;28;20134;-83
2024/01/16 00:36:35;;;;;;;115.45;64.57;;;2.00;96.50;;;;;;5031858;28;20098;-78
2024/01/16 00:39:03;;;;;;;119.38;66.75;;;1.90;96.80;;;;;;5029276;28;20384;-85
2024/01/16 00:41:30;;;;;;;124.00;69.85;;;2.00;96.90;;;;;;5032021;28;20117;-85
2024/01/16 00:43:58;;;;;;;249.82;123.03;;;2.00;96.80;;;;;;5023402;28;20468;-82
2024/01/16 00:46:25;;;;;;;163.80;84.35;;;2.10;96.90;;;;;;5047154;28;20033;-78
2024/01/16 00:48:52;;;;;;;156.52;82.85;;;2.00;96.80;;;;;;5045036;28;20033;-84
2024/01/16 00:51:20;;;;;;;156.27;82.65;;;2.00;96.80;;;;;;5044376;28;20443;-83
2024/01/16 00:53:47;;;;;;;162.68;86.28;;;1.80;96.90;;;;;;5046142;28;20049;-81
2024/01/16 00:56:15;;;;;;;147.85;84.18;;;2.00;96.90;;;;;;5029564;28;20174;-85
2024/01/16 00:58:43;;;;;;;267.73;136.60;;;2.10;96.80;;;;;;5048288;28;20103;-78
2024/01/16 01:01:11;;;;;;;158.93;88.30;;;2.10;97.70;;;;;;5048064;28;20037;-81
2024/01/16 01:03:39;;;;;;;148.60;79.72;;;2.00;97.10;;;;;;5042684;28;20037;-80
2024/01/16 01:06:09;;;;;;;156.52;82.82;;;1.90;97.20;;;;;;5034901;28;20091;-80
2024/01/16 01:08:37;;;;;;;163.38;86.80;;;2.10;97.20;;;;;;5045348;28;20257;-81
2024/01/16 01:11:04;;;;;;;163.75;88.13;;;1.90;96.90;;;;;;5024437;28;20044;-83
2024/01/16 01:13:32;;;;;;;180.00;96.50;;;1.80;97.50;;;;;;5026575;28;20052;-82
2024/01/16 01:16:02;;;;;;;188.82;93.70;;;1.90;97.60;;;;;;5037744;28;20064;-82
2024/01/16 01:18:29;;;;;;;172.82;90.00;;;1.60;97.90;;;;;;5019650;28;20079;-83
2024/01/16 01:20:56;;;;;;;172.20;92.47;;;1.80;98.30;;;;;;5037889;28;20068;-80
2024/01/16 01:23:24;;;;;;;174.55;92.75;;;1.90;98.10;;;;;;5041777;28;20029;-80
2024/01/16 01:25:52;;;;;;;179.02;91.55;;;2.00;97.80;;;;;;5035183;28;20029;-81
2024/01/16 01:28:19;;;;;;;159.50;86.40;;;2.00;97.40;;;;;;5043777;28;20119;-81
2024/01/16 01:30:46;;;;;;;159.70;85.63;;;1.90;97.50;;;;;;5036458;28;20033;-82
2024/01/16 01:33:14;;;;;;;151.75;85.20;;;2.10;97.40;;;;;;5042337;28;20477;-84
2024/01/16 01:35:41;;;;;;;173.25;89.68;;;2.00;97.20;;;;;;5022843;28;20128;-83
2024/01/16 01:38:09;;;;;;;148.48;81.28;;;2.10;97.20;;;;;;5037448;28;20025;-84
2024/01/16 01:40:36;;;;;;;158.00;85.97;;;2.10;97.20;;;;;;5034433;28;20064;-84
2024/01/16 01:43:21;;;;;;;165.35;88.07;;;2.00;97.00;;;;;;5038776;28;20037;-83
2024/01/16 01:46:01;;;;;;;184.77;90.80;;;2.00;97.20;;;;;;5020352;28;20464;-84
2024/01/16 01:48:28;;;;;;;182.95;92.40;;;1.90;97.20;;;;;;5026058;28;20520;-83
2024/01/16 01:50:56;;;;;;;174.50;93.45;;;2.00;97.40;;;;;;5038667;28;20514;-83
2024/01/16 01:53:23;;;;;;;170.40;91.10;;;2.10;97.20;;;;;;5037464;28;20108;-82
2024/01/16 01:55:51;;;;;;;164.48;86.88;;;2.10;97.00;;;;;;5040565;28;20035;-83
2024/01/16 01:58:18;;;;;;;163.88;84.07;;;2.20;96.80;;;;;;5037474;28;20121;-83
2024/01/16 02:00:46;;;;;;;158.48;84.90;;;2.20;96.60;;;;;;5033605;28;20049;-84
2024/01/16 02:03:14;;;;;;;170.65;83.78;;;2.10;96.80;;;;;;5034484;28;20034;-85
2024/01/16 02:05:42;;;;;;;161.10;83.43;;;2.10;96.90;;;;;;5040310;28;20091;-84
2024/01/16 02:08:10;;;;;;;157.57;82.75;;;2.10;97.20;;;;;;5034183;28;20033;-84
2024/01/16 02:10:42;;;;;;;160.57;81.78;;;2.10;97.20;;;;;;5040281;28;20049;-84
2024/01/16 02:13:09;;;;;;;157.75;81.88;;;2.10;97.00;;;;;;5022895;28;20051;-83
2024/01/16 02:15:41;;;;;;;158.15;85.10;;;2.10;97.30;;;;;;5035880;28;20037;-85
2024/01/16 02:18:08;;;;;;;173.20;89.10;;;2.10;97.60;;;;;;5020254;28;20117;-83
2024/01/16 02:20:35;;;;;;;170.90;89.22;;;2.10;97.90;;;;;;5038619;28;20038;-85
2024/01/16 02:23:04;;;;;;;171.25;88.95;;;2.20;98.10;;;;;;5033217;28;20061;-82
2024/01/16 02:25:32;;;;;;;157.25;87.90;;;1.70;98.40;;;;;;5039013;28;20037;-83
2024/01/16 02:28:02;;;;;;;167.15;84.63;;;1.90;99.80;;;;;;5027240;28;20614;-84
2024/01/16 02:30:29;;;;;;;164.38;88.00;;;2.10;99.70;;;;;;5035114;28;20091;-82
2024/01/16 02:32:57;;;;;;;140.45;80.32;;;2.20;99.30;;;;;;5042531;28;20041;-84
2024/01/16 02:35:24;;;;;;;156.43;81.50;;;2.30;99.10;;;;;;5038331;28;20036;-84
2024/01/16 02:37:52;;;;;;;144.95;78.93;;;2.30;98.80;;;;;;5036856;28;20064;-83
2024/01/16 02:40:20;;;;;;;144.95;76.95;;;2.30;98.60;;;;;;5036962;28;20386;-82
2024/01/16 02:42:47;;;;;;;136.52;76.47;;;2.30;98.60;;;;;;5038462;28;20053;-81
2024/01/16 02:45:15;;;;;;;147.60;78.43;;;2.40;98.70;;;;;;5033697;28;20537;-84
2024/01/16 02:47:42;;;;;;;146.98;77.22;;;2.30;98.70;;;;;;5039182;28;20033;-81
2024/01/16 02:50:10;;;;;;;141.73;76.28;;;2.30;98.90;;;;;;5041007;28;20043;-80
2024/01/16 02:52:38;;;;;;;139.30;75.82;;;2.40;98.70;;;;;;5034925;28;20107;-79
2024/01/16 02:55:06;;;;;;;126.07;72.50;;;2.40;98.50;;;;;;5019201;28;20049;-82
2024/01/16 02:57:33;;;;;;;132.88;71.03;;;2.30;98.20;;;;;;5037654;28;20096;-80
2024/01/16 03:00:01;;;;;;;120.35;65.75;;;2.40;98.10;;;;;;5037803;28;20029;-78
2024/01/16 03:02:29;;;;;;;124.55;64.93;;;2.30;98.10;;;;;;5033111;28;20099;-79
2024/01/16 03:04:57;;;;;;;120.65;64.97;;;2.10;98.00;;;;;;5033897;28;20029;-78
2024/01/16 03:07:24;;;;;;;122.20;65.50;;;2.10;98.30;;;;;;5036902;28;20116;-78
2024/01/16 03:09:51;;;;;;;122.75;67.00;;;2.00;98.10;;;;;;5040423;28;20451;-77
2024/01/16 03:12:19;;;;;;;123.72;69.22;;;1.90;98.70;;;;;;5049043;28;20450;-80
2024/01/16 03:14:46;;;;;;;112.95;63.85;;;1.90;98.90;;;;;;5043116;28;21724;-82
2024/01/16 03:17:13;;;;;;;130.43;69.13;;;1.70;99.00;;;;;;5046110;28;20037;-79
2024/01/16 03:19:43;;;;;;;123.35;69.05;;;1.70;99.40;;;;;;5048823;28;20061;-80
2024/01/16 03:22:10;;;;;;;119.35;68.57;;;1.60;99.80;;;;;;5043033;28;20044;-79
2024/01/16 03:24:38;;;;;;;121.82;66.97;;;1.70;99.90;;;;;;5048603;28;20152;-80
2024/01/16 03:27:05;;;;;;;133.25;67.65;;;1.80;99.90;;;;;;5050018;28;20083;-80
2024/01/16 03:29:33;;;;;;;117.32;63.67;;;1.60;99.90;;;;;;5048917;28;20033;-81
2024/01/16 03:32:05;;;;;;;112.50;62.97;;;1.60;99.90;;;;;;5015318;28;20484;-79
2024/01/16 03:34:32;;;;;;;102.78;60.22;;;1.40;99.90;;;;;;5044757;28;20036;-80
2024/01/16 03:37:00;;;;;;;104.60;58.80;;;1.50;99.90;;;;;;5046292;28;20061;-82
2024/01/16 03:39:28;;;;;;;112.90;57.58;;;1.40;99.90;;;;;;5037523;28;20212;-81
2024/01/16 03:41:55;;;;;;;103.57;55.85;;;1.30;99.90;;;;;;5045851;28;20036;-82
2024/01/16 03:44:23;;;;;;;101.03;55.53;;;1.40;99.90;;;;;;5047616;28;20037;-79
2024/01/16 03:46:50;;;;;;;103.80;58.22;;;1.40;99.90;;;;;;5042240;28;20045;-82
2024/01/16 03:49:18;;;;;;;104.80;55.05;;;1.50;99.90;;;;;;5029684;28;20032;-82
2024/01/16 03:51:46;;;;;;;108.13;57.08;;;1.40;99.90;;;;;;5044735;28;20431;-80
2024/01/16 03:54:13;;;;;;;102.13;53.75;;;1.50;99.90;;;;;;5046518;28;20033;-81
2024/01/16 03:56:41;;;;;;;104.93;56.15;;;1.40;99.90;;;;;;5047428;28;20049;-80
2024/01/16 03:59:08;;;;;;;97.53;55.28;;;1.30;99.90;;;;;;5049114;28;20044;-81
2024/01/16 04:01:38;;;;;;;94.10;53.90;;;1.30;99.90;;;;;;5032240;28;20067;-83
2024/01/16 04:04:06;;;;;;;73.47;40.92;;;1.40;99.90;;;;;;5045987;28;20388;-83
2024/01/16 04:06:35;;;;;;;81.22;42.78;;;1.50;99.90;;;;;;5048094;28;20033;-81
2024/01/16 04:09:03;;;;;;;64.97;39.55;;;1.60;99.90;;;;;;5033585;28;20032;-82
2024/01/16 04:11:31;;;;;;;66.75;38.10;;;1.80;99.40;;;;;;5028916;28;20493;-82
2024/01/16 04:13:58;;;;;;;71.07;43.17;;;1.80;98.80;;;;;;4997193;28;20828;-82
2024/01/16 04:16:25;;;;;;;81.13;42.35;;;1.50;99.20;;;;;;5020610;28;20108;-81
2024/01/16 04:18:53;;;;;;;76.32;42.75;;;1.30;99.90;;;;;;5025552;28;20041;-79
2024/01/16 04:21:20;;;;;;;80.65;45.13;;;1.30;99.90;;;;;;5030231;28;20396;-83
2024/01/16 04:23:48;;;;;;;78.05;42.25;;;1.20;99.90;;;;;;5020756;28;20037;-83
2024/01/16 04:26:15;;;;;;;81.53;42.55;;;1.40;99.90;;;;;;5014492;28;20490;-79
2024/01/16 04:28:42;;;;;;;75.47;41.22;;;1.40;99.90;;;;;;5019741;28;20355;-81
2024/01/16 04:31:11;;;;;;;74.40;41.28;;;1.30;99.90;;;;;;5026799;28;20065;-80
2024/01/16 04:33:40;;;;;;;81.82;40.70;;;1.30;99.90;;;;;;5025360;28;20040;-82
2024/01/16 04:36:07;;;;;;;73.75;39.65;;;1.40;99.90;;;;;;5028165;28;20041;-81
2024/01/16 04:38:35;;;;;;;65.28;35.38;;;1.50;99.90;;;;;;5028000;28;20029;-82
2024/01/16 04:41:03;;;;;;;60.90;34.97;;;1.80;99.90;;;;;;5028582;28;20037;-84
2024/01/16 04:43:30;;;;;;;53.03;31.77;;;2.10;99.90;;;;;;5028412;28;20025;-81
2024/01/16 04:45:58;;;;;;;51.78;30.45;;;2.50;99.90;;;;;;5015345;28;20117;-83
2024/01/16 04:48:30;;;;;;;56.97;32.22;;;2.60;99.80;;;;;;5032252;28;20033;-82
2024/01/16 04:50:58;;;;;;;48.22;29.40;;;2.70;99.60;;;;;;5015126;28;20032;-80
2024/01/16 04:53:25;;;;;;;52.80;31.08;;;2.70;99.70;;;;;;5033245;28;20376;-82
2024/01/16 04:55:53;;;;;;;53.28;31.00;;;2.90;99.60;;;;;;5012900;28;20033;-82
2024/01/16 04:58:20;;;;;;;54.53;30.05;;;3.00;99.90;;;;;;5031297;28;20037;-80
2024/01/16 05:00:47;;;;;;;65.35;34.30;;;3.00;99.90;;;;;;5027703;28;20047;-81
2024/01/16 05:03:14;;;;;;;67.90;38.45;;;3.10;99.80;;;;;;5029250;28;20038;-81
2024/01/16 05:05:42;;;;;;;76.38;41.78;;;2.70;98.80;;;;;;5030929;28;20037;-81
2024/01/16 05:08:09;;;;;;;76.80;44.25;;;2.50;99.50;;;;;;5029880;28;20037;-80
2024/01/16 05:10:38;;;;;;;77.68;43.42;;;2.60;99.50;;;;;;5038404;28;20124;-83
2024/01/16 05:13:08;;;;;;;80.38;45.35;;;2.60;99.30;;;;;;5052414;28;20495;-81
2024/01/16 05:15:35;;;;;;;88.13;47.00;;;2.40;99.20;;;;;;5030656;28;20384;-80
2024/01/16 05:18:03;;;;;;;71.63;45.03;;;2.30;99.60;;;;;;5052814;28;20512;-82
2024/01/16 05:20:31;;;;;;;72.53;42.92;;;2.40;99.60;;;;;;5048975;28;20060;-80
2024/01/16 05:22:58;;;;;;;72.80;42.55;;;2.50;99.50;;;;;;5050498;28;20037;-84
2024/01/16 05:25:26;;;;;;;73.95;41.20;;;2.50;99.30;;;;;;5052157;28;20310;-80
2024/01/16 05:27:53;;;;;;;77.38;42.13;;;2.50;99.50;;;;;;5051752;28;20116;-79
2024/01/16 05:30:20;;;;;;;72.65;41.10;;;2.30;99.20;;;;;;5052361;28;20120;-79
2024/01/16 05:32:47;;;;;;;64.13;39.67;;;2.20;99.60;;;;;;5051662;28;20033;-79
2024/01/16 05:35:15;;;;;;;62.15;37.15;;;2.10;99.90;;;;;;5033974;28;20094;-80
2024/01/16 05:37:42;;;;;;;67.13;38.22;;;2.20;99.90;;;;;;5051849;28;20056;-80
2024/01/16 05:40:10;;;;;;;60.75;37.95;;;2.20;99.90;;;;;;5052019;28;20063;-78
2024/01/16 05:42:38;;;;;;;63.78;36.47;;;2.10;99.90;;;;;;5052376;28;20428;-82
2024/01/16 05:45:06;;;;;;;63.53;38.38;;;2.30;99.90;;;;;;5025579;28;20469;-79
2024/01/16 05:47:33;;;;;;;64.63;37.45;;;2.00;99.90;;;;;;5045706;28;20099;-83
2024/01/16 05:50:00;;;;;;;66.60;35.72;;;2.10;99.90;;;;;;5048493;28;20451;-79
2024/01/16 05:52:28;;;;;;;61.00;34.70;;;2.30;99.90;;;;;;5048171;28;20421;-80
2024/01/16 05:54:57;;;;;;;66.20;38.03;;;2.40;99.90;;;;;;5045323;28;20377;-80
2024/01/16 05:57:25;;;;;;;65.07;38.63;;;2.20;99.90;;;;;;5046481;28;20036;-80
2024/01/16 05:59:52;;;;;;;64.57;36.97;;;2.30;99.90;;;;;;5047110;28;20392;-78
2024/01/16 06:02:19;;;;;;;59.17;37.10;;;2.40;99.90;;;;;;5049090;28;20033;-81
2024/01/16 06:04:47;;;;;;;61.60;36.00;;;2.30;99.90;;;;;;5032265;28;20052;-81
2024/01/16 06:07:14;;;;;;;68.07;39.70;;;2.40;99.90;;;;;;5051162;28;20047;-79
2024/01/16 06:09:42;;;;;;;58.08;36.75;;;2.40;99.90;;;;;;5046614;28;20095;-78
2024/01/16 06:12:09;;;;;;;69.78;39.22;;;2.50;99.90;;;;;;5050494;28;20384;-82
2024/01/16 06:14:36;;;;;;;68.43;36.70;;;2.40;99.90;;;;;;5033927;28;20507;-81
2024/01/16 06:17:05;;;;;;;68.68;37.70;;;2.40;99.90;;;;;;5047476;28;20448;-82
2024/01/16 06:19:33;;;;;;;63.83;37.72;;;2.60;99.90;;;;;;5044185;28;20035;-82
2024/01/16 06:22:00;;;;;;;61.22;37.75;;;2.70;99.90;;;;;;5045406;28;20050;-82
2024/01/16 06:24:30;;;;;;;63.42;38.28;;;2.80;99.90;;;;;;5030694;28;20036;-83
2024/01/16 06:26:58;;;;;;;72.22;38.20;;;2.70;99.90;;;;;;5051474;28;20443;-84
2024/01/16 06:29:26;;;;;;;71.60;39.58;;;2.80;99.90;;;;;;5051415;28;20074;-82
2024/01/16 06:32:01;;;;;;;71.07;40.85;;;2.90;99.90;;;;;;5046936;28;20044;-83
2024/01/16 06:34:29;;;;;;;68.32;41.95;;;3.00;99.90;;;;;;5047603;28;20376;-84
2024/01/16 06:36:56;;;;;;;65.78;41.13;;;3.00;99.40;;;;;;5049072;28;20040;-82
2024/01/16 06:39:23;;;;;;;71.57;39.95;;;2.80;99.60;;;;;;5047092;28;20504;-83
2024/01/16 06:41:53;;;;;;;73.13;42.00;;;2.60;99.90;;;;;;5046995;28;20041;-83
2024/01/16 06:44:20;;;;;;;63.65;40.85;;;2.50;99.90;;;;;;5050752;28;20041;-83
2024/01/16 06:46:47;;;;;;;76.47;41.30;;;2.60;99.90;;;;;;5043397;28;20037;-82
2024/01/16 06:49:15;;;;;;;80.22;43.45;;;2.60;99.90;;;;;;5049055;28;20526;-82
2024/01/16 06:51:42;;;;;;;78.10;43.10;;;2.80;99.90;;;;;;5049893;28;20091;-83
2024/01/16 06:54:10;;;;;;;76.97;43.78;;;2.90;99.90;;;;;;5047172;28;20037;-82
2024/01/16 06:56:37;;;;;;;68.90;40.75;;;3.00;99.90;;;;;;5032842;28;20431;-82
2024/01/16 06:59:05;;;;;;;74.32;41.83;;;2.80;99.80;;;;;;5013178;28;20528;-81
2024/01/16 07:01:36;;;;;;;78.07;42.10;;;2.60;99.90;;;;;;5026798;28;20029;-82
2024/01/16 07:04:03;;;;;;;75.13;40.75;;;2.50;99.90;;;;;;5045571;28;20032;-82
2024/01/16 07:06:31;;;;;;;73.15;40.08;;;2.60;99.90;;;;;;5049900;28;20059;-82
2024/01/16 07:08:58;;;;;;;58.88;33.35;;;2.50;99.90;;;;;;5025642;28;20032;-82
2024/01/16 07:11:25;;;;;;;69.25;36.50;;;2.60;99.80;;;;;;5045413;28;20049;-80
2024/01/16 07:13:53;;;;;;;57.03;32.88;;;2.80;99.70;;;;;;5041432;28;20116;-83
2024/01/16 07:16:20;;;;;;;59.97;30.35;;;3.00;99.60;;;;;;5050562;28;20040;-84
2024/01/16 07:18:48;;;;;;;54.30;31.02;;;3.10;99.60;;;;;;5045588;28;20110;-80
2024/01/16 07:21:18;;;;;;;56.83;29.90;;;3.20;99.40;;;;;;5048998;28;20056;-79
2024/01/16 07:23:46;;;;;;;45.25;27.13;;;3.30;99.30;;;;;;5045210;28;20676;-81
2024/01/16 07:26:16;;;;;;;41.08;24.15;;;3.40;99.30;;;;;;5049022;28;20108;-81
2024/01/16 07:28:50;;;;;;;36.90;23.83;;;3.60;98.80;;;;;;5044787;28;20098;-82
2024/01/16 07:31:18;;;;;;;40.60;25.13;;;3.70;98.50;;;;;;5049703;28;20040;-80
2024/01/16 07:33:45;;;;;;;42.22;25.88;;;3.70;98.40;;;;;;5047605;28;20741;-82
2024/01/16 07:36:14;;;;;;;41.28;24.92;;;3.80;98.30;;;;;;5028811;28;20103;-83
2024/01/16 07:38:41;;;;;;;44.03;25.35;;;3.90;98.20;;;;;;5043579;28;20500;-81
2024/01/16 07:41:09;;;;;;;42.85;26.67;;;4.00;98.00;;;;;;5032430;28;20047;-82
2024/01/16 07:43:36;;;;;;;42.38;25.70;;;4.10;97.90;;;;;;5049572;28;20427;-82
2024/01/16 07:46:04;;;;;;;47.22;28.65;;;4.20;97.70;;;;;;5046082;28;20120;-82
2024/01/16 07:48:31;;;;;;;60.05;33.83;;;4.20;98.00;;;;;;5049424;28;20391;-80
2024/01/16 07:50:59;;;;;;;65.07;36.25;;;4.10;98.40;;;;;;5051082;28;20041;-84
2024/01/16 07:53:27;;;;;;;55.17;35.45;;;4.10;98.80;;;;;;5049921;28;20060;-82
2024/01/16 07:55:55;;;;;;;71.50;41.05;;;4.10;98.70;;;;;;5050090;28;20132;-84
2024/01/16 07:58:22;;;;;;;70.93;40.33;;;4.00;98.90;;;;;;5047103;28;20082;-82
2024/01/16 08:00:51;;;;;;;48.17;30.65;;;3.90;99.10;;;;;;5047518;28;20179;-83
2024/01/16 08:03:19;;;;;;;66.85;38.72;;;4.00;98.90;;;;;;5045465;28;20159;-82
2024/01/16 08:05:46;;;;;;;67.07;39.47;;;4.20;99.10;;;;;;5048103;28;20354;-79
2024/01/16 08:08:13;;;;;;;46.28;28.20;;;4.10;98.70;;;;;;5049643;28;20029;-80
2024/01/16 08:10:44;;;;;;;34.67;23.25;;;4.10;98.70;;;;;;5046483;28;20053;-80
2024/01/16 08:13:12;;;;;;;30.23;19.10;;;4.20;98.10;;;;;;5048227;28;20138;-80
2024/01/16 08:15:40;;;;;;;18.10;12.68;;;4.10;97.60;;;;;;5045652;28;20080;-80
2024/01/16 08:18:07;;;;;;;18.98;12.30;;;4.20;97.00;;;;;;5051027;28;20043;-82
2024/01/16 08:20:35;;;;;;;15.73;9.38;;;4.10;97.10;;;;;;5048043;28;20473;-81
2024/01/16 08:23:04;;;;;;;25.85;15.88;;;4.10;97.30;;;;;;5049291;28;20037;-82
2024/01/16 08:25:31;;;;;;;30.05;16.70;;;3.90;98.20;;;;;;5049043;28;20420;-82
2024/01/16 08:28:00;;;;;;;29.60;18.27;;;3.70;98.60;;;;;;5034555;28;20088;-82
2024/01/16 08:30:28;;;;;;;21.67;13.98;;;3.80;98.80;;;;;;5051433;28;20068;-82
2024/01/16 08:32:55;;;;;;;13.75;10.57;;;3.70;98.40;;;;;;5052152;28;20505;-81
2024/01/16 08:35:23;;;;;;;13.98;9.98;;;3.80;97.90;;;;;;5051772;28;20041;-83
2024/01/16 08:37:50;;;;;;;13.88;10.18;;;3.80;97.80;;;;;;5052691;28;20098;-83
2024/01/16 08:40:18;;;;;;;27.38;18.45;;;3.90;97.70;;;;;;5042453;28;20109;-83
2024/01/16 08:42:45;;;;;;;21.58;11.77;;;4.20;97.70;;;;;;5051188;28;20052;-82
2024/01/16 08:45:13;;;;;;;13.80;10.05;;;4.20;96.80;;;;;;5035147;28;20032;-83
2024/01/16 08:47:41;;;;;;;27.92;17.35;;;4.20;96.90;;;;;;5031904;28;20095;-80
2024/01/16 08:50:09;;;;;;;13.23;9.23;;;4.40;96.80;;;;;;5051704;28;20098;-82
2024/01/16 08:52:36;;;;;;;15.75;9.80;;;4.30;96.40;;;;;;5050212;28;20028;-81
2024/01/16 08:55:04;;;;;;;24.23;14.55;;;4.40;96.70;;;;;;5048997;28;20033;-82
2024/01/16 08:57:31;;;;;;;24.90;16.27;;;4.20;97.70;;;;;;5050458;28;20043;-82
2024/01/16 08:59:59;;;;;;;25.38;17.85;;;4.10;97.90;;;;;;5051083;28;20052;-83
2024/01/16 09:02:28;;;;;;;31.08;18.08;;;4.00;98.40;;;;;;5033077;28;20491;-82
2024/01/16 09:04:56;;;;;;;38.78;21.75;;;3.90;98.50;;;;;;5050629;28;20492;-82
2024/01/16 09:07:25;;;;;;;34.67;21.88;;;3.90;98.60;;;;;;5052180;28;20056;-81
2024/01/16 09:09:53;;;;;;;44.50;26.77;;;3.90;98.60;;;;;;5034432;28;20045;-82
2024/01/16 09:12:20;;;;;;;43.47;26.58;;;3.90;98.80;;;;;;5048291;28;20423;-82
2024/01/16 09:14:47;;;;;;;50.55;27.73;;;3.80;98.80;;;;;;5051135;28;20439;-81
2024/01/16 09:17:15;;;;;;;49.40;28.02;;;3.90;98.90;;;;;;5046885;28;20373;-80
2024/01/16 09:19:42;;;;;;;43.38;24.15;;;4.00;98.80;;;;;;5033211;28;20046;-83
2024/01/16 09:22:11;;;;;;;39.90;23.40;;;4.00;98.20;;;;;;5044397;28;20440;-81
2024/01/16 09:24:38;;;;;;;39.70;25.48;;;4.20;97.70;;;;;;5031098;28;20086;-82
2024/01/16 09:27:06;;;;;;;37.70;24.73;;;4.20;97.80;;;;;;5047903;28;20029;-82
2024/01/16 09:29:34;;;;;;;47.42;25.45;;;4.30;97.80;;;;;;5016069;28;20041;-82
2024/01/16 09:32:02;;;;;;;29.42;18.20;;;4.40;97.60;;;;;;5051002;28;20037;-82
2024/01/16 09:34:29;;;;;;;30.50;18.60;;;4.50;96.60;;;;;;5050998;28;20068;-81
2024/01/16 09:37:00;;;;;;;23.63;18.10;;;4.60;96.40;;;;;;5049831;28;20034;-82
2024/01/16 09:39:34;;;;;;;24.95;16.45;;;4.80;96.60;;;;;;5044572;28;20040;-80
2024/01/16 09:42:16;;;;;;;22.35;12.82;;;4.90;95.70;;;;;;5037480;28;20380;-83
2024/01/16 09:44:43;;;;;;;13.35;9.43;;;4.80;95.40;;;;;;5047101;28;20056;-83
2024/01/16 09:47:31;;;;;;;8.02;6.55;;;4.90;94.10;;;;;;5044574;28;20096;-81
2024/01/16 09:50:02;;;;;;;6.22;5.43;;;4.90;93.10;;;;;;5047028;28;20073;-80
2024/01/16 09:52:30;;;;;;;6.65;5.15;;;4.90;92.50;;;;;;5049142;28;20099;-80
2024/01/16 09:54:58;;;;;;;6.40;5.05;;;4.90;91.90;;;;;;5045531;28;20029;-81
2024/01/16 09:57:27;;;;;;;6.53;5.32;;;5.00;92.00;;;;;;5047282;28;20037;-82
2024/01/16 09:59:56;;;;;;;7.97;5.28;;;5.10;91.70;;;;;;5050039;28;20116;-83
2024/01/16 10:02:24;;;;;;;6.60;5.07;;;5.30;91.60;;;;;;5049305;28;20040;-82
2024/01/16 10:04:52;;;;;;;6.72;4.80;;;5.20;91.00;;;;;;5049217;28;20480;-83
2024/01/16 10:07:27;;;;;;;11.18;5.55;;;5.30;91.20;;;;;;5013216;28;20039;-82
2024/01/16 10:09:58;;;;;;;8.93;5.25;;;5.40;91.10;;;;;;5007576;28;1206546;-79
2024/01/16 10:12:27;;;;;;;5.85;5.00;;;5.40;90.80;;;;;;5045731;28;20040;-82
2024/01/16 10:14:56;;;;;;;12.02;7.45;;;5.60;90.50;;;;;;5031266;28;20104;-82
2024/01/16 10:17:39;;;;;;;18.95;11.68;;;5.80;90.40;;;;;;5049936;28;20716;-80
2024/01/16 10:20:13;;;;;;;7.55;5.57;;;5.80;90.40;;;;;;5028699;28;20384;-80
2024/01/16 10:22:52;;;;;;;6.10;5.20;;;5.80;89.30;;;;;;5043025;28;20692;-80
2024/01/16 10:25:21;;;;;;;6.78;4.53;;;5.70;89.50;;;;;;5050326;28;20115;-78
2024/01/16 10:27:48;;;;;;;4.70;4.20;;;5.90;88.10;;;;;;5049624;28;20041;-79
2024/01/16 10:30:22;;;;;;;7.35;4.50;;;5.70;88.50;;;;;;5049098;28;20044;-78
2024/01/16 10:32:49;;;;;;;6.43;4.70;;;5.80;88.50;;;;;;5049556;28;20037;-79
2024/01/16 10:35:18;;;;;;;6.95;4.60;;;6.30;88.30;;;;;;5048870;28;20037;-84
2024/01/16 10:37:53;;;;;;;6.32;4.65;;;6.70;87.20;;;;;;5049657;28;20045;-79
2024/01/16 10:40:24;;;;;;;5.43;4.50;;;7.00;85.70;;;;;;5030640;28;20044;-79
2024/01/16 10:43:00;;;;;;;5.22;4.47;;;7.10;84.80;;;;;;5046519;28;20033;-78
2024/01/16 10:45:46;;;;;;;6.07;4.82;;;7.10;84.70;;;;;;5042134;28;20507;-78
2024/01/16 10:48:15;;;;;;;5.63;4.50;;;7.20;84.40;;;;;;5032184;28;20040;-78
2024/01/16 10:50:43;;;;;;;5.88;4.40;;;7.10;83.90;;;;;;5046639;28;20041;-79
2024/01/16 10:53:15;;;;;;;5.78;4.57;;;7.30;83.40;;;;;;5030871;28;20057;-77
2024/01/16 10:55:52;;;;;;;6.57;4.80;;;7.30;83.80;;;;;;5047091;28;20041;-77
2024/01/16 10:58:22;;;;;;;9.98;4.93;;;7.50;83.20;;;;;;5042135;28;20112;-77
2024/01/16 11:00:53;;;;;;;325.10;155.70;;;7.50;83.20;;;;;;5048188;28;20056;-80
2024/01/16 11:03:38;;;;;;;77.22;46.97;;;7.40;84.10;;;;;;5047598;28;20040;-77
2024/01/16 11:06:07;;;;;;;121.53;62.75;;;7.50;83.10;;;;;;5045992;28;20044;-79
2024/01/16 11:08:37;;;;;;;15.18;11.63;;;7.60;83.70;;;;;;5025332;28;20056;-77
2024/01/16 11:11:05;;;;;;;25.45;15.48;;;7.40;82.50;;;;;;5045119;28;20064;-77
2024/01/16 11:13:34;;;;;;;273.77;136.38;;;7.50;83.70;;;;;;5043768;28;20496;-80
2024/01/16 11:16:06;;;;;;;30.98;25.55;;;7.90;83.90;;;;;;5044478;28;20037;-81
2024/01/16 11:18:38;;;;;;;9.98;8.23;;;7.80;81.30;;;;;;5043084;28;20033;-80
2024/01/16 11:21:12;;;;;;;9.60;6.05;;;7.70;81.70;;;;;;5042257;28;20036;-81
2024/01/16 11:23:45;;;;;;;9.13;4.80;;;7.60;81.60;;;;;;5046936;28;20047;-79
2024/01/16 11:26:36;;;;;;;7.35;4.70;;;7.60;81.60;;;;;;5045289;28;20437;-79
2024/01/16 11:29:28;;;;;;;7.63;5.67;;;7.20;82.50;;;;;;5046980;28;20037;-76
2024/01/16 11:31:58;;;;;;;8.95;5.90;;;6.90;84.50;;;;;;5026453;28;20053;-80
2024/01/16 11:34:41;;;;;;;7.72;5.80;;;6.80;85.70;;;;;;5031298;28;20039;-81
2024/01/16 11:37:11;;;;;;;7.65;5.68;;;7.10;85.60;;;;;;5046422;28;20036;-78
2024/01/16 11:39:38;;;;;;;8.25;5.55;;;7.30;85.10;;;;;;5046627;28;20115;-81
2024/01/16 11:42:08;;;;;;;10.32;5.70;;;7.40;83.90;;;;;;5045188;28;20064;-80
2024/01/16 11:44:41;;;;;;;9.05;6.20;;;7.50;83.70;;;;;;5044999;28;20483;-81
2024/01/16 11:47:09;;;;;;;7.25;5.82;;;7.50;83.80;;;;;;5043107;28;20108;-80
2024/01/16 11:49:37;;;;;;;6.55;5.65;;;7.60;83.50;;;;;;5046005;28;20039;-81
2024/01/16 11:52:07;;;;;;;8.70;6.03;;;7.50;83.60;;;;;;5042168;28;20049;-81
2024/01/16 11:54:34;;;;;;;8.55;5.70;;;7.50;83.80;;;;;;5044172;28;20071;-80
2024/01/16 11:57:11;;;;;;;8.27;5.45;;;7.80;83.10;;;;;;5045913;28;20064;-79
2024/01/16 12:00:07;;;;;;;7.53;5.03;;;7.70;81.60;;;;;;5045304;28;20051;-79
2024/01/16 12:03:03;;;;;;;7.63;5.35;;;7.80;81.40;;;;;;5044749;28;20486;-77
2024/01/16 12:05:31;;;;;;;120.00;64.00;;;8.00;81.20;;;;;;5029426;28;20041;-77
2024/01/16 12:07:59;;;;;;;35.40;22.33;;;8.40;84.20;;;;;;5026798;28;20041;-79
2024/01/16 12:10:26;;;;;;;11.82;8.50;;;8.70;81.80;;;;;;5046450;28;20068;-85
2024/01/16 12:12:58;;;;;;;8.98;7.15;;;8.60;80.80;;;;;;5047347;28;20041;-78
2024/01/16 12:15:31;;;;;;;13.13;6.53;;;8.20;81.40;;;;;;5047955;28;20438;-78
2024/01/16 12:18:00;;;;;;;9.00;6.25;;;7.80;82.40;;;;;;5046201;28;20132;-82
2024/01/16 12:20:34;;;;;;;10.35;6.90;;;8.00;82.60;;;;;;5040933;28;20112;-80
2024/01/16 12:23:04;;;;;;;11.07;6.57;;;8.30;83.60;;;;;;5036272;28;20036;-77
2024/01/16 12:25:35;;;;;;;9.27;6.60;;;8.30;81.20;;;;;;5045932;28;20106;-82
2024/01/16 12:28:23;;;;;;;8.00;6.22;;;8.80;79.80;;;;;;5040879;28;20056;-82
2024/01/16 12:31:00;;;;;;;10.13;5.60;;;9.40;78.00;;;;;;5031277;28;20045;-90
2024/01/16 12:33:32;;;;;;;7.95;5.95;;;9.30;78.10;;;;;;5046972;28;20043;-85
2024/01/16 12:36:04;;;;;;;10.50;6.90;;;8.90;78.80;;;;;;5049590;28;20033;-87
2024/01/16 12:38:35;;;;;;;8.70;6.80;;;8.60;79.20;;;;;;5032025;28;20646;-82
2024/01/16 12:41:08;;;;;;;9.07;6.63;;;8.30;79.70;;;;;;5012120;28;20136;-86
2024/01/16 12:43:38;;;;;;;9.50;6.22;;;8.00;80.20;;;;;;5030767;28;20380;-84
2024/01/16 12:46:06;;;;;;;11.35;6.40;;;7.90;80.50;;;;;;5025502;28;20126;-79
2024/01/16 12:48:33;;;;;;;8.88;6.40;;;7.90;80.80;;;;;;5045733;28;20131;-78